Time;durP1;ratioP1;P1;durP2;ratioP2;P2;SDS_P1;SDS_P2;PMS_P1;PMS_P2;Temp;Humidity;BMP_temperature;BMP_pressure;BME280_temperature;BME280_humidity;BME280_pressure;Samples;Min_cycle;Max_cycle;Signal;HPM_P1;HPM_P2
2024/01/30 00:01:09;;;;;;;5.65;2.80;;;22.60;42.50;;;;;;5074877;28;20187;-61
2024/01/30 00:03:36;;;;;;;5.93;2.72;;;22.70;42.60;;;;;;5075247;28;20221;-60
2024/01/30 00:06:04;;;;;;;5.88;2.67;;;22.60;42.40;;;;;;5074991;28;20211;-59
2024/01/30 00:08:32;;;;;;;6.53;2.35;;;22.60;42.40;;;;;;5075149;28;20305;-61
2024/01/30 00:10:59;;;;;;;5.45;2.35;;;22.70;42.40;;;;;;5074663;28;20289;-60
2024/01/30 00:13:26;;;;;;;4.97;2.30;;;22.70;42.40;;;;;;5074955;28;20225;-60
2024/01/30 00:15:53;;;;;;;6.38;2.20;;;22.70;42.40;;;;;;5074845;28;20214;-60
2024/01/30 00:18:21;;;;;;;5.97;2.15;;;22.70;42.30;;;;;;5074914;28;20230;-59
2024/01/30 00:20:48;;;;;;;2.95;1.98;;;22.70;42.30;;;;;;5074995;28;20286;-58
2024/01/30 00:23:15;;;;;;;6.03;2.10;;;22.70;42.20;;;;;;5074686;28;20215;-60
2024/01/30 00:25:43;;;;;;;4.15;2.15;;;22.80;42.30;;;;;;5074385;28;20198;-60
2024/01/30 00:28:10;;;;;;;3.55;1.95;;;22.80;42.20;;;;;;5074501;28;20238;-60
2024/01/30 00:30:36;;;;;;;5.63;2.00;;;22.80;42.80;;;;;;5074768;28;20218;-61
2024/01/30 00:33:04;;;;;;;5.63;2.03;;;22.80;42.10;;;;;;5074684;28;20248;-61
2024/01/30 00:35:31;;;;;;;5.45;1.80;;;22.80;42.10;;;;;;5074357;28;20191;-61
2024/01/30 00:37:58;;;;;;;5.40;2.22;;;22.80;42.10;;;;;;5074315;28;20215;-60
2024/01/30 00:40:25;;;;;;;5.43;1.92;;;22.70;42.70;;;;;;5074496;28;20183;-59
2024/01/30 00:42:53;;;;;;;3.58;1.63;;;22.70;42.10;;;;;;5074155;28;20640;-60
2024/01/30 00:45:20;;;;;;;4.10;1.73;;;22.60;42.10;;;;;;5074397;28;20277;-59
2024/01/30 00:47:46;;;;;;;4.25;2.05;;;22.60;42.10;;;;;;5074398;28;20292;-60
2024/01/30 00:50:13;;;;;;;3.13;1.70;;;22.60;42.10;;;;;;5074271;28;20227;-60
2024/01/30 00:52:41;;;;;;;4.68;1.67;;;22.60;42.10;;;;;;5074278;28;20218;-60
2024/01/30 00:55:08;;;;;;;3.40;1.77;;;22.60;42.10;;;;;;5073947;28;20649;-60
2024/01/30 00:57:35;;;;;;;5.30;1.83;;;22.50;42.10;;;;;;5073862;28;20223;-60
2024/01/30 01:00:06;;;;;;;3.60;1.52;;;22.50;42.10;;;;;;5074229;28;20555;-60
2024/01/30 01:02:33;;;;;;;4.85;1.80;;;22.50;42.10;;;;;;5073790;28;20770;-58
2024/01/30 01:05:00;;;;;;;3.65;1.42;;;22.50;42.10;;;;;;5073676;28;20598;-61
2024/01/30 01:07:26;;;;;;;2.97;1.63;;;22.60;42.10;;;;;;5073715;28;20724;-60
2024/01/30 01:09:53;;;;;;;3.03;1.45;;;22.60;42.10;;;;;;5073851;28;20209;-60
2024/01/30 01:12:20;;;;;;;3.97;1.45;;;22.60;42.00;;;;;;5073147;28;20222;-60
2024/01/30 01:14:47;;;;;;;3.53;1.55;;;22.60;41.90;;;;;;5073766;28;20191;-60
2024/01/30 01:17:15;;;;;;;2.53;1.30;;;22.60;41.90;;;;;;5073717;28;20235;-61
2024/01/30 01:19:42;;;;;;;2.40;1.30;;;22.60;42.60;;;;;;5073833;28;20281;-61
2024/01/30 01:22:09;;;;;;;6.53;1.70;;;22.60;41.90;;;;;;5073830;28;20246;-60
2024/01/30 01:24:37;;;;;;;3.53;1.40;;;22.70;42.00;;;;;;5073308;28;20194;-60
2024/01/30 01:27:04;;;;;;;3.42;1.92;;;22.70;41.90;;;;;;5073093;28;20230;-60
2024/01/30 01:29:31;;;;;;;3.88;1.35;;;22.70;41.80;;;;;;5073776;28;20201;-60
2024/01/30 01:31:59;;;;;;;2.53;1.20;;;22.70;41.70;;;;;;5073001;28;20451;-60
2024/01/30 01:34:27;;;;;;;2.65;1.40;;;22.70;41.60;;;;;;5073080;28;20190;-60
2024/01/30 01:36:55;;;;;;;4.22;1.40;;;22.70;41.50;;;;;;5073120;28;20751;-60
2024/01/30 01:39:23;;;;;;;3.42;1.20;;;22.80;41.50;;;;;;5073055;28;20183;-60
2024/01/30 01:41:49;;;;;;;2.72;1.40;;;22.80;41.50;;;;;;5072911;28;20191;-59
2024/01/30 01:44:16;;;;;;;2.92;1.17;;;22.70;41.40;;;;;;5073173;28;20274;-60
2024/01/30 01:46:43;;;;;;;4.57;1.40;;;22.80;41.50;;;;;;5073032;28;20218;-60
2024/01/30 01:49:10;;;;;;;3.28;1.00;;;22.70;41.40;;;;;;5072778;28;20297;-60
2024/01/30 01:51:40;;;;;;;3.55;1.35;;;22.70;41.50;;;;;;5073128;28;20187;-60
2024/01/30 01:54:08;;;;;;;2.95;1.08;;;22.60;42.10;;;;;;5073063;28;20294;-60
2024/01/30 01:56:36;;;;;;;5.00;1.27;;;22.60;41.40;;;;;;5072626;28;20273;-60
2024/01/30 01:59:07;;;;;;;3.72;1.23;;;22.60;41.50;;;;;;5072960;28;20194;-60
2024/01/30 02:01:34;;;;;;;2.22;1.27;;;22.60;41.50;;;;;;5073189;28;20210;-60
2024/01/30 02:04:01;;;;;;;2.15;1.13;;;22.50;41.40;;;;;;5072799;28;20254;-60
2024/01/30 02:06:29;;;;;;;2.67;1.08;;;22.50;41.40;;;;;;5071386;28;20221;-61
2024/01/30 02:08:57;;;;;;;2.30;0.88;;;22.50;42.10;;;;;;5072170;28;20309;-61
2024/01/30 02:11:24;;;;;;;2.40;1.00;;;22.50;41.40;;;;;;5072646;28;20187;-61
2024/01/30 02:13:51;;;;;;;2.55;1.00;;;22.50;41.30;;;;;;5072484;28;20218;-59
2024/01/30 02:16:18;;;;;;;2.88;1.08;;;22.60;41.30;;;;;;5072299;28;20672;-61
2024/01/30 02:18:47;;;;;;;2.63;0.93;;;22.60;41.30;;;;;;5072724;28;20215;-60
2024/01/30 02:21:16;;;;;;;3.65;1.10;;;22.60;41.30;;;;;;5072738;28;20191;-60
2024/01/30 02:23:44;;;;;;;2.45;1.08;;;22.60;41.30;;;;;;5072374;28;20758;-60
2024/01/30 02:26:11;;;;;;;2.50;0.90;;;22.60;41.30;;;;;;5071867;28;20659;-60
2024/01/30 02:28:38;;;;;;;2.83;0.90;;;22.60;41.20;;;;;;5072394;28;20256;-60
2024/01/30 02:31:06;;;;;;;2.70;0.90;;;22.60;41.20;;;;;;5072476;28;20195;-60
2024/01/30 02:33:33;;;;;;;1.33;0.77;;;22.60;41.20;;;;;;5071835;28;20691;-60
2024/01/30 02:35:59;;;;;;;3.17;1.08;;;22.60;41.10;;;;;;5072251;28;20744;-60
2024/01/30 02:38:28;;;;;;;2.17;0.93;;;22.60;41.00;;;;;;5072257;28;20311;-59
2024/01/30 02:40:56;;;;;;;2.20;1.00;;;22.60;41.00;;;;;;5072261;28;20266;-61
2024/01/30 02:43:24;;;;;;;2.80;0.80;;;22.60;41.00;;;;;;5071724;28;20215;-60
2024/01/30 02:45:50;;;;;;;1.10;0.70;;;22.70;41.60;;;;;;5072002;28;20286;-60
2024/01/30 02:48:17;;;;;;;3.13;1.35;;;22.70;40.90;;;;;;5071726;28;20235;-60
2024/01/30 02:50:45;;;;;;;2.03;0.93;;;22.70;40.90;;;;;;5072287;28;20202;-60
2024/01/30 02:53:12;;;;;;;1.67;0.77;;;22.70;40.90;;;;;;5072260;28;20219;-60
2024/01/30 02:55:40;;;;;;;1.88;0.73;;;22.70;40.90;;;;;;5071841;28;20191;-60
2024/01/30 02:58:07;;;;;;;1.55;0.65;;;22.60;40.90;;;;;;5071858;28;20700;-60
2024/01/30 03:00:35;;;;;;;1.55;0.82;;;22.60;41.00;;;;;;5072141;28;20190;-61
2024/01/30 03:03:01;;;;;;;2.42;0.80;;;22.60;41.00;;;;;;5071912;28;20215;-60
2024/01/30 03:05:28;;;;;;;2.42;1.15;;;22.50;41.60;;;;;;5072144;28;20190;-61
2024/01/30 03:07:55;;;;;;;2.05;0.80;;;22.50;41.00;;;;;;5072041;28;20241;-60
2024/01/30 03:10:22;;;;;;;2.47;0.95;;;22.50;41.00;;;;;;5071756;28;20216;-59
2024/01/30 03:12:50;;;;;;;1.17;0.80;;;22.50;41.00;;;;;;5072122;28;20218;-60
2024/01/30 03:15:17;;;;;;;2.60;1.05;;;22.50;41.00;;;;;;5072121;28;20221;-61
2024/01/30 03:17:44;;;;;;;3.38;1.15;;;22.50;41.10;;;;;;5071275;28;20257;-60
2024/01/30 03:20:12;;;;;;;2.13;0.80;;;22.50;41.00;;;;;;5072089;28;20643;-60
2024/01/30 03:22:39;;;;;;;2.10;0.60;;;22.50;41.00;;;;;;5071846;28;20214;-61
2024/01/30 03:25:06;;;;;;;2.40;0.80;;;22.60;41.00;;;;;;5071690;28;20545;-60
2024/01/30 03:27:33;;;;;;;4.40;1.02;;;22.60;41.00;;;;;;5071876;28;20237;-60
2024/01/30 03:30:01;;;;;;;1.92;0.80;;;22.60;41.00;;;;;;5071744;28;20635;-61
2024/01/30 03:32:28;;;;;;;2.83;0.98;;;22.60;41.00;;;;;;5071591;28;20277;-61
2024/01/30 03:34:55;;;;;;;2.35;0.90;;;22.60;40.90;;;;;;5071744;28;20748;-61
2024/01/30 03:37:22;;;;;;;2.75;0.80;;;22.60;40.90;;;;;;5071983;28;20219;-60
2024/01/30 03:39:49;;;;;;;2.22;0.70;;;22.60;40.80;;;;;;5071089;28;20230;-59
2024/01/30 03:42:16;;;;;;;3.90;0.88;;;22.60;40.80;;;;;;5071491;28;20276;-60
2024/01/30 03:44:43;;;;;;;1.63;0.70;;;22.70;40.80;;;;;;5071829;28;20274;-60
2024/01/30 03:47:11;;;;;;;2.47;0.80;;;22.60;40.80;;;;;;5071365;28;20234;-61
2024/01/30 03:49:38;;;;;;;1.95;0.80;;;22.60;40.70;;;;;;5071394;28;20226;-60
2024/01/30 03:52:05;;;;;;;2.38;0.93;;;22.70;40.70;;;;;;5071672;28;20213;-60
2024/01/30 03:54:32;;;;;;;1.50;0.63;;;22.70;40.60;;;;;;5071370;28;20190;-60
2024/01/30 03:56:59;;;;;;;1.80;0.70;;;22.70;40.60;;;;;;5074992;28;20720;-59
2024/01/30 03:59:26;;;;;;;1.77;0.80;;;22.80;40.60;;;;;;5074943;28;20203;-60
2024/01/30 04:01:53;;;;;;;1.85;0.93;;;22.70;40.60;;;;;;5074846;28;20281;-60
2024/01/30 04:04:21;;;;;;;1.92;0.68;;;22.70;40.60;;;;;;5074907;28;20226;-60
2024/01/30 04:06:48;;;;;;;2.85;0.90;;;22.60;40.50;;;;;;5075012;28;20282;-58
2024/01/30 04:09:15;;;;;;;3.08;1.02;;;22.60;40.60;;;;;;5074587;28;20222;-60
2024/01/30 04:11:42;;;;;;;3.13;0.88;;;22.60;40.70;;;;;;5074923;28;20274;-60
2024/01/30 04:14:09;;;;;;;2.85;0.98;;;22.50;40.70;;;;;;5074865;28;20587;-60
2024/01/30 04:16:36;;;;;;;2.38;0.63;;;22.50;40.70;;;;;;5074298;28;20262;-60
2024/01/30 04:19:03;;;;;;;2.63;0.80;;;22.50;40.70;;;;;;5074628;28;20218;-60
2024/01/30 04:21:32;;;;;;;2.35;0.70;;;22.50;40.70;;;;;;5074932;28;20189;-60
2024/01/30 04:23:59;;;;;;;2.00;0.70;;;22.50;40.80;;;;;;5074404;28;20219;-59
2024/01/30 04:26:26;;;;;;;2.47;0.90;;;22.50;40.70;;;;;;5074728;28;20274;-59
2024/01/30 04:28:52;;;;;;;1.58;0.70;;;22.60;40.70;;;;;;5074739;28;20680;-61
2024/01/30 04:31:19;;;;;;;2.92;0.70;;;22.60;40.70;;;;;;5074452;28;20182;-60
2024/01/30 04:33:46;;;;;;;1.88;0.93;;;22.50;40.60;;;;;;5074344;28;20309;-60
2024/01/30 04:36:13;;;;;;;3.15;0.80;;;22.60;40.60;;;;;;5074513;28;20183;-60
2024/01/30 04:38:41;;;;;;;3.22;0.80;;;22.60;40.60;;;;;;5074160;28;20215;-61
2024/01/30 04:41:08;;;;;;;2.38;0.80;;;22.60;40.60;;;;;;5074234;28;20649;-61
2024/01/30 04:43:35;;;;;;;1.67;0.77;;;22.60;40.50;;;;;;5074136;28;20712;-58
2024/01/30 04:46:02;;;;;;;5.03;0.90;;;22.60;40.50;;;;;;5074048;28;20246;-60
2024/01/30 04:48:29;;;;;;;2.38;0.88;;;22.60;40.50;;;;;;5074357;28;20253;-60
2024/01/30 04:50:56;;;;;;;3.33;0.95;;;22.60;40.50;;;;;;5074373;28;20198;-58
2024/01/30 04:53:23;;;;;;;2.80;0.75;;;22.60;40.40;;;;;;5073857;28;20237;-59
2024/01/30 04:55:51;;;;;;;3.72;0.80;;;22.70;40.40;;;;;;5074266;28;20183;-60
2024/01/30 04:58:18;;;;;;;2.45;0.70;;;22.70;40.40;;;;;;5074141;28;20301;-60
2024/01/30 05:00:45;;;;;;;2.40;0.90;;;22.70;40.30;;;;;;5073531;28;20541;-60
2024/01/30 05:03:12;;;;;;;2.88;0.80;;;22.70;40.90;;;;;;5074147;28;20223;-60
2024/01/30 05:05:39;;;;;;;2.10;0.70;;;22.70;40.20;;;;;;5073787;28;20282;-60
2024/01/30 05:08:07;;;;;;;1.70;0.88;;;22.70;40.20;;;;;;5072695;28;20230;-60
2024/01/30 05:10:33;;;;;;;3.03;0.93;;;22.60;40.20;;;;;;5073630;28;20649;-60
2024/01/30 05:13:02;;;;;;;3.60;1.00;;;22.60;40.20;;;;;;5073905;28;20242;-60
2024/01/30 05:15:29;;;;;;;2.58;1.02;;;22.50;40.20;;;;;;5073824;28;20193;-59
2024/01/30 05:17:56;;;;;;;3.35;0.80;;;22.50;40.30;;;;;;5073449;28;20235;-61
2024/01/30 05:20:23;;;;;;;2.88;0.88;;;22.50;40.30;;;;;;5073534;28;20203;-60
2024/01/30 05:22:49;;;;;;;3.03;0.85;;;22.50;40.30;;;;;;5073289;28;20225;-60
2024/01/30 05:25:16;;;;;;;3.28;0.95;;;22.50;40.40;;;;;;5073711;28;20197;-60
2024/01/30 05:27:43;;;;;;;2.20;0.80;;;22.50;40.40;;;;;;5073551;28;20236;-60
2024/01/30 05:30:12;;;;;;;1.95;0.82;;;22.50;40.40;;;;;;5073218;28;20198;-58
2024/01/30 05:32:39;;;;;;;3.13;0.95;;;22.50;40.30;;;;;;5073059;28;20763;-61
2024/01/30 05:35:07;;;;;;;2.40;0.85;;;22.50;40.30;;;;;;5073489;28;20191;-60
2024/01/30 05:37:34;;;;;;;1.17;0.85;;;22.50;40.20;;;;;;5072714;28;20215;-57
2024/01/30 05:40:01;;;;;;;1.92;0.75;;;22.60;40.30;;;;;;5073342;28;20187;-60
2024/01/30 05:42:28;;;;;;;3.30;0.95;;;22.50;40.20;;;;;;5073382;28;20309;-60
2024/01/30 05:44:55;;;;;;;4.20;1.00;;;22.60;40.20;;;;;;5072988;28;20197;-61
2024/01/30 05:47:23;;;;;;;2.10;0.90;;;22.60;40.20;;;;;;5073223;28;20219;-59
2024/01/30 05:49:50;;;;;;;1.48;0.82;;;22.60;40.20;;;;;;5073070;28;20215;-61
2024/01/30 05:52:18;;;;;;;2.00;0.85;;;22.60;40.20;;;;;;5072722;28;20221;-60
2024/01/30 05:54:45;;;;;;;2.30;0.98;;;22.60;40.10;;;;;;5073119;28;20213;-60
2024/01/30 05:57:12;;;;;;;3.30;0.95;;;22.60;40.00;;;;;;5073034;28;20281;-59
2024/01/30 05:59:39;;;;;;;3.17;0.98;;;22.60;40.00;;;;;;5072584;28;20297;-60
2024/01/30 06:02:05;;;;;;;2.60;0.93;;;22.60;40.00;;;;;;5072548;28;20727;-60
2024/01/30 06:04:34;;;;;;;1.50;0.75;;;22.60;39.80;;;;;;5072613;28;20573;-59
2024/01/30 06:07:01;;;;;;;2.33;1.00;;;22.60;39.80;;;;;;5072337;28;20195;-60
2024/01/30 06:09:29;;;;;;;3.28;1.15;;;22.70;39.80;;;;;;5072944;28;20229;-60
2024/01/30 06:11:56;;;;;;;3.33;1.10;;;22.70;39.70;;;;;;5072746;28;20202;-60
2024/01/30 06:14:23;;;;;;;3.25;1.10;;;22.60;39.70;;;;;;5072456;28;20286;-61
2024/01/30 06:16:50;;;;;;;2.58;0.77;;;22.60;39.70;;;;;;5072269;28;20226;-60
2024/01/30 06:19:17;;;;;;;2.08;0.70;;;22.60;39.80;;;;;;5072556;28;20215;-61
2024/01/30 06:21:45;;;;;;;1.55;0.80;;;22.60;39.80;;;;;;5072214;28;20277;-60
2024/01/30 06:24:12;;;;;;;4.05;0.90;;;22.50;39.80;;;;;;5072300;28;20310;-60
2024/01/30 06:26:39;;;;;;;3.60;1.10;;;22.50;39.80;;;;;;5072636;28;20186;-60
2024/01/30 06:29:07;;;;;;;3.28;0.90;;;22.50;39.90;;;;;;5072043;28;20238;-61
2024/01/30 06:31:34;;;;;;;1.77;0.75;;;22.40;39.80;;;;;;5072448;28;20194;-61
2024/01/30 06:34:01;;;;;;;3.95;0.80;;;22.40;39.80;;;;;;5072559;28;20305;-59
2024/01/30 06:36:27;;;;;;;2.92;1.02;;;22.40;39.80;;;;;;5071850;28;20278;-60
2024/01/30 06:38:56;;;;;;;3.75;0.80;;;22.50;39.80;;;;;;5072556;28;20305;-60
2024/01/30 06:41:23;;;;;;;1.15;0.70;;;22.50;39.80;;;;;;5072440;28;20197;-60
2024/01/30 06:43:50;;;;;;;3.15;0.85;;;22.50;39.80;;;;;;5071827;28;20211;-60
2024/01/30 06:46:17;;;;;;;3.00;1.10;;;22.50;39.70;;;;;;5072339;28;20187;-60
2024/01/30 06:48:44;;;;;;;3.50;0.88;;;22.50;39.70;;;;;;5072391;28;20231;-60
2024/01/30 06:51:11;;;;;;;2.63;1.00;;;22.60;39.70;;;;;;5071976;28;20190;-60
2024/01/30 06:53:38;;;;;;;3.03;0.90;;;22.50;39.60;;;;;;5072208;28;20219;-61
2024/01/30 06:56:07;;;;;;;2.35;1.00;;;22.60;39.60;;;;;;5072233;28;20191;-60
2024/01/30 06:58:34;;;;;;;4.63;0.98;;;22.60;39.50;;;;;;5071637;28;20574;-60
2024/01/30 07:01:01;;;;;;;3.45;0.90;;;22.60;39.40;;;;;;5072268;28;20274;-58
2024/01/30 07:03:28;;;;;;;2.67;0.60;;;22.60;39.40;;;;;;5071913;28;20218;-60
2024/01/30 07:05:55;;;;;;;2.78;1.02;;;22.60;39.40;;;;;;5071553;28;20710;-60
2024/01/30 07:08:22;;;;;;;4.13;0.90;;;22.60;39.40;;;;;;5071792;28;20230;-60
2024/01/30 07:10:49;;;;;;;1.60;0.90;;;22.60;39.20;;;;;;5070898;28;20198;-59
2024/01/30 07:13:18;;;;;;;3.28;0.80;;;22.60;39.30;;;;;;5071659;28;20268;-60
2024/01/30 07:15:45;;;;;;;6.88;1.23;;;22.60;39.30;;;;;;5071801;28;20236;-61
2024/01/30 07:18:13;;;;;;;2.25;0.80;;;22.60;39.30;;;;;;5072034;28;20233;-60
2024/01/30 07:20:45;;;;;;;3.72;1.00;;;22.60;39.40;;;;;;5071857;28;20194;-59
2024/01/30 07:23:13;;;;;;;1.85;0.73;;;22.50;39.30;;;;;;5056946;28;20334;-59
2024/01/30 07:25:41;;;;;;;4.20;1.10;;;22.50;39.40;;;;;;5064354;28;20191;-59
2024/01/30 07:28:09;;;;;;;2.10;0.95;;;22.40;39.40;;;;;;5070935;28;20248;-59
2024/01/30 07:30:37;;;;;;;2.72;0.98;;;22.40;39.40;;;;;;5073204;28;20574;-59
2024/01/30 07:33:04;;;;;;;2.85;1.20;;;22.40;39.50;;;;;;5073057;28;20787;-59
2024/01/30 07:35:31;;;;;;;2.65;1.00;;;22.40;39.50;;;;;;5074575;28;20195;-60
2024/01/30 07:37:58;;;;;;;2.33;1.00;;;22.30;39.40;;;;;;5066776;28;20225;-60
2024/01/30 07:40:25;;;;;;;3.10;0.90;;;22.30;39.50;;;;;;5057980;28;20629;-60
2024/01/30 07:42:54;;;;;;;3.33;1.30;;;22.30;39.60;;;;;;5053739;28;20315;-60
2024/01/30 07:45:24;;;;;;;1.75;0.80;;;22.30;39.50;;;;;;5063517;28;20221;-59
2024/01/30 07:47:52;;;;;;;2.78;0.93;;;22.30;39.50;;;;;;5075054;28;20276;-60
2024/01/30 07:50:19;;;;;;;3.75;1.17;;;22.30;39.50;;;;;;5070839;28;20246;-60
2024/01/30 07:52:48;;;;;;;3.95;1.05;;;22.40;39.60;;;;;;5071600;28;20219;-59
2024/01/30 07:55:54;;;;;;;3.00;1.02;;;22.30;39.50;;;;;;5072806;28;20191;-59
2024/01/30 07:58:21;;;;;;;3.63;0.95;;;22.30;39.50;;;;;;4991732;28;20217;-59
2024/01/30 08:00:48;;;;;;;5.57;1.48;;;22.30;39.60;;;;;;5041478;28;21296;-59
2024/01/30 08:03:18;;;;;;;3.78;1.10;;;22.30;39.60;;;;;;5054603;28;20220;-59
2024/01/30 08:05:44;;;;;;;7.03;1.10;;;22.30;39.60;;;;;;5053962;28;20192;-60
2024/01/30 08:08:11;;;;;;;2.47;0.98;;;22.40;39.70;;;;;;5071524;28;20309;-59
2024/01/30 08:10:38;;;;;;;4.55;1.50;;;22.40;39.80;;;;;;5061212;28;20198;-60
2024/01/30 08:13:05;;;;;;;3.92;1.10;;;22.40;39.90;;;;;;5053420;28;20254;-58
2024/01/30 08:15:32;;;;;;;5.22;1.00;;;22.40;39.80;;;;;;5048749;28;20204;-59
2024/01/30 08:17:59;;;;;;;5.10;1.10;;;22.40;39.70;;;;;;5060977;28;20297;-59
2024/01/30 08:20:27;;;;;;;2.22;0.90;;;22.40;39.60;;;;;;5068506;28;20199;-59
2024/01/30 08:22:54;;;;;;;6.45;1.20;;;22.40;39.70;;;;;;5065380;28;20229;-59
2024/01/30 08:25:21;;;;;;;7.55;1.08;;;22.40;39.70;;;;;;5071739;28;20304;-59
2024/01/30 08:27:48;;;;;;;2.22;0.80;;;22.40;39.70;;;;;;5062831;28;20227;-59
2024/01/30 08:30:15;;;;;;;4.15;1.13;;;22.40;39.70;;;;;;5061999;28;20302;-59
2024/01/30 08:32:42;;;;;;;4.88;1.25;;;22.40;39.80;;;;;;5061895;28;20301;-59
2024/01/30 08:35:09;;;;;;;2.40;0.80;;;22.40;39.90;;;;;;5070497;28;20195;-59
2024/01/30 08:37:38;;;;;;;2.65;1.10;;;22.40;39.90;;;;;;5055637;28;20306;-60
2024/01/30 08:40:06;;;;;;;2.78;0.90;;;22.30;39.90;;;;;;5052581;28;20192;-59
2024/01/30 08:42:35;;;;;;;6.35;1.30;;;22.30;40.00;;;;;;5061770;28;20235;-59
2024/01/30 08:45:04;;;;;;;2.28;1.10;;;22.30;40.00;;;;;;5060051;28;20194;-59
2024/01/30 08:47:33;;;;;;;8.50;1.08;;;22.30;40.00;;;;;;5072991;28;20203;-60
2024/01/30 08:50:00;;;;;;;2.97;1.10;;;22.30;39.90;;;;;;5070513;28;20597;-59
2024/01/30 08:52:27;;;;;;;3.47;0.90;;;22.40;39.90;;;;;;5065503;28;20202;-59
2024/01/30 08:54:55;;;;;;;4.53;1.40;;;22.40;39.80;;;;;;5055940;28;20199;-59
2024/01/30 08:57:22;;;;;;;4.93;1.10;;;22.40;40.40;;;;;;5054430;28;20685;-58
2024/01/30 08:59:49;;;;;;;3.53;1.10;;;22.40;39.70;;;;;;5052755;28;20187;-56
2024/01/30 09:02:18;;;;;;;4.93;1.20;;;22.40;39.80;;;;;;5061907;28;20217;-60
2024/01/30 09:04:45;;;;;;;5.75;1.20;;;22.40;39.80;;;;;;5049207;28;20235;-58
2024/01/30 09:07:13;;;;;;;4.75;0.85;;;22.50;39.80;;;;;;5051530;28;20564;-59
2024/01/30 09:09:41;;;;;;;6.20;1.08;;;22.50;40.40;;;;;;5060022;28;20661;-59
2024/01/30 09:12:12;;;;;;;3.38;1.10;;;22.50;39.70;;;;;;5068410;28;20191;-59
2024/01/30 09:14:40;;;;;;;5.97;1.23;;;22.50;39.70;;;;;;5012343;28;20215;-59
2024/01/30 09:17:07;;;;;;;3.50;1.20;;;22.50;39.60;;;;;;5052650;28;20321;-59
2024/01/30 09:19:34;;;;;;;5.22;1.00;;;22.50;39.60;;;;;;5067581;28;20206;-59
2024/01/30 09:22:01;;;;;;;4.07;1.40;;;22.50;39.50;;;;;;5058295;28;20915;-59
2024/01/30 09:24:28;;;;;;;6.00;1.40;;;22.60;39.40;;;;;;5067154;28;20223;-58
2024/01/30 09:26:55;;;;;;;4.38;1.10;;;22.60;39.40;;;;;;5053938;28;20206;-59
2024/01/30 09:29:24;;;;;;;5.20;1.30;;;22.60;39.30;;;;;;5056338;28;20761;-61
2024/01/30 09:31:51;;;;;;;8.30;1.38;;;22.60;39.20;;;;;;5064342;28;20199;-58
2024/01/30 09:34:18;;;;;;;5.00;1.48;;;22.60;39.30;;;;;;5055428;28;20306;-58
2024/01/30 09:36:45;;;;;;;4.88;1.30;;;22.50;39.30;;;;;;5053537;28;20191;-59
2024/01/30 09:39:14;;;;;;;4.32;1.50;;;22.50;39.40;;;;;;5054697;28;20621;-58
2024/01/30 09:41:53;;;;;;;8.55;1.10;;;22.50;39.40;;;;;;5058025;28;20195;-59
2024/01/30 09:50:12;;;;;;;4.82;1.20;;;22.50;39.40;;;;;;5164149;22;20355;-57
2024/01/30 09:52:40;;;;;;;5.55;1.00;;;22.50;39.40;;;;;;5039970;28;20550;-56
2024/01/30 09:55:09;;;;;;;5.32;1.10;;;22.50;39.40;;;;;;5049881;28;20277;-57
2024/01/30 09:57:37;;;;;;;6.60;1.60;;;22.50;39.40;;;;;;5050386;28;20204;-57
2024/01/30 10:00:10;;;;;;;4.30;1.25;;;22.60;39.50;;;;;;5050991;28;20619;-57
2024/01/30 10:02:37;;;;;;;4.40;1.25;;;22.60;39.30;;;;;;5050976;28;20249;-57
2024/01/30 10:05:06;;;;;;;5.00;1.20;;;22.70;39.30;;;;;;5042803;28;20227;-57
2024/01/30 10:07:34;;;;;;;5.57;1.45;;;22.70;39.20;;;;;;5043432;28;20202;-58
2024/01/30 10:10:03;;;;;;;1.80;1.02;;;22.80;39.10;;;;;;5046768;28;20231;-57
2024/01/30 10:12:31;;;;;;;4.97;1.10;;;22.80;39.10;;;;;;5057013;28;20281;-56
2024/01/30 10:14:58;;;;;;;6.38;1.27;;;22.80;38.80;;;;;;5046941;28;20306;-56
2024/01/30 10:17:28;;;;;;;4.60;1.10;;;22.80;38.70;;;;;;5051912;28;20188;-56
2024/01/30 10:19:56;;;;;;;3.33;1.33;;;22.80;38.70;;;;;;5041080;28;20600;-57
2024/01/30 10:22:23;;;;;;;7.15;1.33;;;22.90;38.90;;;;;;5046094;28;20629;-57
2024/01/30 10:24:50;;;;;;;3.55;1.10;;;22.90;38.80;;;;;;5048029;28;20655;-55
2024/01/30 10:27:17;;;;;;;4.30;1.17;;;22.80;38.70;;;;;;5046167;28;20192;-56
2024/01/30 10:29:44;;;;;;;5.07;1.00;;;22.90;38.80;;;;;;5049569;28;20587;-56
2024/01/30 10:32:11;;;;;;;4.70;1.33;;;22.90;38.70;;;;;;5050271;28;20192;-55
2024/01/30 10:34:39;;;;;;;6.20;1.58;;;22.90;38.50;;;;;;5046867;28;20215;-54
2024/01/30 10:37:12;;;;;;;5.25;1.05;;;22.90;38.40;;;;;;5047901;28;20195;-56
2024/01/30 10:39:40;;;;;;;2.92;1.20;;;22.90;38.40;;;;;;5047744;28;20624;-56
2024/01/30 10:42:09;;;;;;;3.75;1.20;;;22.90;38.50;;;;;;5050050;28;20191;-56
2024/01/30 10:44:44;;;;;;;3.40;1.13;;;22.80;38.50;;;;;;5046434;28;20261;-53
2024/01/30 10:47:14;;;;;;;6.93;1.20;;;22.80;38.60;;;;;;5047377;28;20207;-54
2024/01/30 10:49:43;;;;;;;8.63;1.55;;;22.80;38.60;;;;;;5039169;28;20231;-56
2024/01/30 10:52:13;;;;;;;5.30;1.40;;;22.70;38.60;;;;;;5056908;28;20209;-57
2024/01/30 10:54:44;;;;;;;3.63;1.45;;;22.70;38.60;;;;;;5058136;28;20221;-55
2024/01/30 10:57:12;;;;;;;5.10;1.23;;;22.70;38.60;;;;;;5064109;28;20833;-53
2024/01/30 10:59:39;;;;;;;4.53;1.27;;;22.70;38.70;;;;;;5046594;28;20479;-56
2024/01/30 11:02:07;;;;;;;2.78;1.25;;;22.70;38.60;;;;;;5047960;28;20294;-56
2024/01/30 11:04:38;;;;;;;7.60;1.40;;;22.70;38.60;;;;;;5046015;28;20725;-55
2024/01/30 11:07:17;;;;;;;4.15;1.10;;;22.70;38.50;;;;;;5052048;28;20231;-56
2024/01/30 11:09:50;;;;;;;3.50;1.17;;;22.80;38.30;;;;;;5049209;28;20735;-55
2024/01/30 11:12:17;;;;;;;5.90;1.40;;;22.80;38.20;;;;;;5052294;28;20639;-56
2024/01/30 11:14:44;;;;;;;4.47;1.35;;;22.80;38.00;;;;;;5054099;28;20322;-54
2024/01/30 11:17:13;;;;;;;7.63;1.45;;;22.80;38.10;;;;;;5053794;28;20215;-56
2024/01/30 11:19:42;;;;;;;3.63;1.23;;;22.80;38.00;;;;;;5056320;28;20226;-56
2024/01/30 11:22:09;;;;;;;7.57;1.10;;;22.90;38.10;;;;;;5055168;28;20191;-56
2024/01/30 11:24:42;;;;;;;8.82;1.20;;;22.90;38.00;;;;;;5046135;28;20195;-56
2024/01/30 11:27:10;;;;;;;4.10;1.20;;;22.90;37.90;;;;;;5045577;28;20218;-56
2024/01/30 11:29:37;;;;;;;4.22;1.10;;;22.80;37.80;;;;;;5039876;28;20215;-56
2024/01/30 11:32:05;;;;;;;3.58;1.00;;;22.90;37.70;;;;;;5038719;28;20215;-55
2024/01/30 11:34:34;;;;;;;4.90;1.17;;;22.90;37.60;;;;;;5039022;28;20191;-57
2024/01/30 11:37:10;;;;;;;3.75;1.30;;;22.90;37.50;;;;;;5040318;28;20207;-55
2024/01/30 11:39:38;;;;;;;2.35;1.33;;;22.90;37.50;;;;;;5049755;28;20283;-56
2024/01/30 11:42:09;;;;;;;5.25;1.45;;;22.90;37.50;;;;;;5050960;28;20760;-57
2024/01/30 11:44:36;;;;;;;3.45;1.10;;;22.90;37.50;;;;;;5051898;28;20192;-56
2024/01/30 11:47:04;;;;;;;10.30;1.30;;;22.90;37.50;;;;;;5052511;28;20226;-55
2024/01/30 11:49:31;;;;;;;4.78;1.13;;;22.80;37.50;;;;;;5052382;28;20310;-57
2024/01/30 11:51:58;;;;;;;4.22;1.33;;;22.80;37.50;;;;;;5061457;28;20268;-56
2024/01/30 11:54:25;;;;;;;3.28;1.10;;;22.80;37.50;;;;;;5060127;28;20279;-56
2024/01/30 11:56:52;;;;;;;3.30;1.00;;;22.80;37.50;;;;;;5053378;28;20299;-54
2024/01/30 11:59:20;;;;;;;4.00;1.35;;;22.70;37.50;;;;;;5054309;28;20287;-57
2024/01/30 12:01:47;;;;;;;3.00;1.20;;;22.80;37.60;;;;;;5050983;28;20329;-56
2024/01/30 12:04:14;;;;;;;4.70;1.60;;;22.70;37.40;;;;;;5059725;28;20689;-55
2024/01/30 12:06:41;;;;;;;3.50;1.15;;;22.70;37.40;;;;;;5052463;28;20760;-55
2024/01/30 12:09:13;;;;;;;3.03;1.17;;;22.80;37.50;;;;;;5053106;28;20218;-57
2024/01/30 12:11:49;;;;;;;6.00;1.45;;;22.80;37.30;;;;;;5047264;28;20246;-54
2024/01/30 12:14:19;;;;;;;3.75;1.10;;;22.90;37.50;;;;;;5049234;28;20290;-57
2024/01/30 12:16:51;;;;;;;3.90;1.35;;;22.90;37.20;;;;;;5050093;28;20246;-57
2024/01/30 12:19:25;;;;;;;3.65;1.60;;;22.90;37.00;;;;;;5052476;28;20612;-55
2024/01/30 12:21:58;;;;;;;4.88;1.10;;;23.00;37.00;;;;;;5045875;28;20573;-56
2024/01/30 12:24:26;;;;;;;4.20;1.50;;;23.00;36.90;;;;;;5040831;28;20199;-55
2024/01/30 12:26:53;;;;;;;2.95;1.33;;;23.10;36.90;;;;;;5044401;28;20250;-57
2024/01/30 12:29:21;;;;;;;2.65;1.15;;;23.10;36.80;;;;;;5050711;28;20194;-56
2024/01/30 12:31:53;;;;;;;3.88;1.33;;;23.10;37.50;;;;;;5050909;28;20231;-55
2024/01/30 12:34:20;;;;;;;3.97;1.30;;;23.10;36.70;;;;;;5052566;28;20286;-55
2024/01/30 12:36:48;;;;;;;7.10;1.25;;;23.10;36.70;;;;;;5051174;28;20713;-56
2024/01/30 12:39:16;;;;;;;3.88;1.30;;;23.10;36.60;;;;;;5045459;28;20290;-55
2024/01/30 12:41:43;;;;;;;3.63;1.40;;;23.10;36.60;;;;;;5048289;28;20211;-55
2024/01/30 12:44:10;;;;;;;5.25;2.03;;;23.10;36.60;;;;;;5042538;28;20261;-55
2024/01/30 12:46:37;;;;;;;12.20;1.50;;;23.10;36.70;;;;;;5045420;28;20229;-55
2024/01/30 12:49:05;;;;;;;3.30;1.60;;;23.00;36.80;;;;;;5050686;28;20227;-56
2024/01/30 12:51:35;;;;;;;5.07;1.65;;;23.00;36.80;;;;;;5047652;28;20774;-56
2024/01/30 12:54:06;;;;;;;9.30;1.70;;;22.90;36.80;;;;;;5052926;28;20195;-57
2024/01/30 12:56:33;;;;;;;4.32;1.45;;;22.90;36.90;;;;;;5052005;28;20234;-58